sensor_id;sensor_type;location;lat;lon;timestamp;pressure;altitude;pressure_sealevel;temperature;humidity
43450;BME280;29041;42.266;23.110;2022-12-11T00:00:58;93707.75;;;12.78;100.00
43450;BME280;29041;42.266;23.110;2022-12-11T00:03:45;93680.09;;;12.59;100.00
43450;BME280;29041;42.266;23.110;2022-12-11T00:06:33;93664.69;;;12.52;100.00
43450;BME280;29041;42.266;23.110;2022-12-11T00:09:21;93685.84;;;12.72;100.00
43450;BME280;29041;42.266;23.110;2022-12-11T00:12:08;93661.63;;;12.54;100.00
43450;BME280;29041;42.266;23.110;2022-12-11T00:14:57;93685.84;;;12.50;100.00
43450;BME280;29041;42.266;23.110;2022-12-11T00:17:44;93659.69;;;12.65;100.00
43450;BME280;29041;42.266;23.110;2022-12-11T00:20:32;93635.88;;;12.38;100.00
43450;BME280;29041;42.266;23.110;2022-12-11T00:23:19;93671.63;;;12.61;100.00
43450;BME280;29041;42.266;23.110;2022-12-11T00:26:08;93618.19;;;12.34;100.00
43450;BME280;29041;42.266;23.110;2022-12-11T00:28:56;93634.72;;;12.32;100.00
43450;BME280;29041;42.266;23.110;2022-12-11T00:31:45;93670.88;;;12.53;100.00
43450;BME280;29041;42.266;23.110;2022-12-11T00:34:32;93668.53;;;12.73;100.00
43450;BME280;29041;42.266;23.110;2022-12-11T00:37:19;93674.66;;;12.88;100.00
43450;BME280;29041;42.266;23.110;2022-12-11T00:40:08;93666.50;;;13.21;100.00
43450;BME280;29041;42.266;23.110;2022-12-11T00:42:55;93671.13;;;13.27;100.00
43450;BME280;29041;42.266;23.110;2022-12-11T00:45:44;93694.59;;;13.27;100.00
43450;BME280;29041;42.266;23.110;2022-12-11T00:48:33;93690.50;;;13.93;100.00
43450;BME280;29041;42.266;23.110;2022-12-11T00:51:21;93694.56;;;13.34;100.00
43450;BME280;29041;42.266;23.110;2022-12-11T00:54:08;93681.88;;;13.31;100.00
43450;BME280;29041;42.266;23.110;2022-12-11T00:56:55;93663.81;;;13.17;100.00
43450;BME280;29041;42.266;23.110;2022-12-11T00:59:43;93698.41;;;13.29;100.00
43450;BME280;29041;42.266;23.110;2022-12-11T01:02:30;93708.88;;;13.06;100.00
43450;BME280;29041;42.266;23.110;2022-12-11T01:05:19;93738.88;;;13.18;100.00
43450;BME280;29041;42.266;23.110;2022-12-11T01:08:07;93757.75;;;12.75;100.00
43450;BME280;29041;42.266;23.110;2022-12-11T01:11:08;93768.13;;;12.59;100.00
43450;BME280;29041;42.266;23.110;2022-12-11T01:13:56;93781.53;;;12.37;100.00
43450;BME280;29041;42.266;23.110;2022-12-11T01:16:43;93755.41;;;12.30;100.00
43450;BME280;29041;42.266;23.110;2022-12-11T01:19:31;93781.94;;;12.35;100.00
43450;BME280;29041;42.266;23.110;2022-12-11T01:22:20;93790.41;;;12.34;100.00
43450;BME280;29041;42.266;23.110;2022-12-11T01:25:19;93786.88;;;12.15;100.00
43450;BME280;29041;42.266;23.110;2022-12-11T01:28:08;93810.69;;;12.10;100.00
43450;BME280;29041;42.266;23.110;2022-12-11T01:30:59;93845.41;;;13.99;100.00
43450;BME280;29041;42.266;23.110;2022-12-11T01:33:47;93829.66;;;13.72;100.00
43450;BME280;29041;42.266;23.110;2022-12-11T01:36:51;93830.09;;;13.53;100.00
43450;BME280;29041;42.266;23.110;2022-12-11T01:57:35;93814.28;;;14.58;100.00
43450;BME280;29041;42.266;23.110;2022-12-11T02:00:29;93820.00;;;15.23;100.00
43450;BME280;29041;42.266;23.110;2022-12-11T02:03:32;93811.25;;;15.12;100.00
43450;BME280;29041;42.266;23.110;2022-12-11T02:06:31;93803.41;;;14.76;100.00
43450;BME280;29041;42.266;23.110;2022-12-11T02:09:22;93830.50;;;15.18;100.00
43450;BME280;29041;42.266;23.110;2022-12-11T02:12:17;93862.38;;;15.37;100.00
43450;BME280;29041;42.266;23.110;2022-12-11T02:15:16;93848.56;;;16.12;100.00
43450;BME280;29041;42.266;23.110;2022-12-11T02:18:14;93860.81;;;17.13;100.00
43450;BME280;29041;42.266;23.110;2022-12-11T02:21:08;93857.19;;;17.23;100.00
43450;BME280;29041;42.266;23.110;2022-12-11T02:24:09;93841.31;;;15.18;100.00
43450;BME280;29041;42.266;23.110;2022-12-11T02:27:13;93840.00;;;15.37;100.00
43450;BME280;29041;42.266;23.110;2022-12-11T02:30:07;93825.31;;;16.76;100.00
43450;BME280;29041;42.266;23.110;2022-12-11T02:32:57;93828.22;;;15.09;100.00
43450;BME280;29041;42.266;23.110;2022-12-11T02:35:45;93810.16;;;15.90;100.00
43450;BME280;29041;42.266;23.110;2022-12-11T02:38:35;93804.88;;;16.41;100.00
43450;BME280;29041;42.266;23.110;2022-12-11T02:41:27;93761.53;;;16.13;100.00
43450;BME280;29041;42.266;23.110;2022-12-11T02:44:18;93791.19;;;16.52;100.00
43450;BME280;29041;42.266;23.110;2022-12-11T02:47:11;93777.88;;;16.64;100.00
43450;BME280;29041;42.266;23.110;2022-12-11T02:50:12;93747.06;;;15.96;100.00
43450;BME280;29041;42.266;23.110;2022-12-11T02:53:02;93770.53;;;16.07;100.00
43450;BME280;29041;42.266;23.110;2022-12-11T02:55:55;93744.13;;;16.14;100.00
43450;BME280;29041;42.266;23.110;2022-12-11T02:58:47;93726.38;;;16.10;100.00
43450;BME280;29041;42.266;23.110;2022-12-11T03:01:37;93770.66;;;16.54;100.00
43450;BME280;29041;42.266;23.110;2022-12-11T03:04:26;93773.94;;;16.69;100.00
43450;BME280;29041;42.266;23.110;2022-12-11T03:07:18;93744.75;;;16.53;99.89
43450;BME280;29041;42.266;23.110;2022-12-11T03:10:10;93774.72;;;16.39;100.00
43450;BME280;29041;42.266;23.110;2022-12-11T03:12:59;93763.66;;;16.29;100.00
43450;BME280;29041;42.266;23.110;2022-12-11T03:15:55;93777.91;;;16.33;100.00
43450;BME280;29041;42.266;23.110;2022-12-11T03:18:51;93794.75;;;16.48;98.67
43450;BME280;29041;42.266;23.110;2022-12-11T03:21:53;93775.88;;;16.41;97.56
43450;BME280;29041;42.266;23.110;2022-12-11T03:24:45;93814.25;;;16.94;95.12
43450;BME280;29041;42.266;23.110;2022-12-11T03:27:39;93829.06;;;16.55;96.75
43450;BME280;29041;42.266;23.110;2022-12-11T03:30:30;93800.75;;;15.98;99.19
43450;BME280;29041;42.266;23.110;2022-12-11T03:33:24;93801.69;;;16.18;97.15
43450;BME280;29041;42.266;23.110;2022-12-11T03:36:16;93822.50;;;16.25;97.59
43450;BME280;29041;42.266;23.110;2022-12-11T03:39:11;93809.41;;;16.20;96.20
43450;BME280;29041;42.266;23.110;2022-12-11T03:42:02;93822.50;;;16.25;95.94
43450;BME280;29041;42.266;23.110;2022-12-11T03:45:07;93803.91;;;16.58;94.72
43450;BME280;29041;42.266;23.110;2022-12-11T03:48:01;93809.38;;;16.24;95.34
43450;BME280;29041;42.266;23.110;2022-12-11T03:51:04;93763.84;;;16.70;93.84
43450;BME280;29041;42.266;23.110;2022-12-11T03:54:01;93769.06;;;16.29;94.07
43450;BME280;29041;42.266;23.110;2022-12-11T03:56:54;93720.38;;;15.98;93.44
43450;BME280;29041;42.266;23.110;2022-12-11T03:59:44;93769.53;;;16.52;90.93
43450;BME280;29041;42.266;23.110;2022-12-11T04:02:31;93780.38;;;16.21;89.92
43450;BME280;29041;42.266;23.110;2022-12-11T04:05:18;93746.69;;;15.94;89.83
43450;BME280;29041;42.266;23.110;2022-12-11T04:08:05;93758.34;;;16.22;88.23
43450;BME280;29041;42.266;23.110;2022-12-11T04:10:52;93768.56;;;16.65;86.87
43450;BME280;29041;42.266;23.110;2022-12-11T04:13:55;93764.75;;;16.87;85.61
43450;BME280;29041;42.266;23.110;2022-12-11T04:16:57;93756.97;;;16.65;84.95
43450;BME280;29041;42.266;23.110;2022-12-11T04:19:46;93735.16;;;17.00;82.58
43450;BME280;29041;42.266;23.110;2022-12-11T04:22:51;93772.78;;;17.85;81.18
43450;BME280;29041;42.266;23.110;2022-12-11T04:26:02;93765.53;;;17.58;80.77
43450;BME280;29041;42.266;23.110;2022-12-11T04:28:50;93774.28;;;17.46;81.45
43450;BME280;29041;42.266;23.110;2022-12-11T04:31:43;93768.94;;;17.19;85.00
43450;BME280;29041;42.266;23.110;2022-12-11T04:34:32;93744.09;;;16.73;87.09
43450;BME280;29041;42.266;23.110;2022-12-11T04:37:19;93746.13;;;16.65;87.42
43450;BME280;29041;42.266;23.110;2022-12-11T04:40:08;93722.31;;;16.53;88.67
43450;BME280;29041;42.266;23.110;2022-12-11T04:42:56;93775.06;;;17.23;89.42
43450;BME280;29041;42.266;23.110;2022-12-11T04:45:43;93773.06;;;16.48;94.44
43450;BME280;29041;42.266;23.110;2022-12-11T04:48:35;93771.47;;;16.24;97.90
43450;BME280;29041;42.266;23.110;2022-12-11T04:51:22;93758.41;;;15.46;100.00
43450;BME280;29041;42.266;23.110;2022-12-11T04:54:10;93783.59;;;15.35;100.00
43450;BME280;29041;42.266;23.110;2022-12-11T04:56:57;93788.56;;;15.86;99.63
43450;BME280;29041;42.266;23.110;2022-12-11T04:59:44;93786.81;;;16.03;97.44
43450;BME280;29041;42.266;23.110;2022-12-11T05:02:34;93793.53;;;15.49;100.00
43450;BME280;29041;42.266;23.110;2022-12-11T05:05:26;93802.00;;;16.24;100.00
43450;BME280;29041;42.266;23.110;2022-12-11T05:08:16;93811.06;;;16.10;99.71
43450;BME280;29041;42.266;23.110;2022-12-11T05:11:05;93799.81;;;15.77;100.00
43450;BME280;29041;42.266;23.110;2022-12-11T05:13:53;93792.81;;;15.42;100.00
43450;BME280;29041;42.266;23.110;2022-12-11T05:16:41;93800.28;;;15.68;100.00
43450;BME280;29041;42.266;23.110;2022-12-11T05:19:29;93799.38;;;15.86;100.00
43450;BME280;29041;42.266;23.110;2022-12-11T05:22:18;93803.50;;;16.29;98.76
43450;BME280;29041;42.266;23.110;2022-12-11T05:25:08;93801.13;;;16.00;98.80
43450;BME280;29041;42.266;23.110;2022-12-11T05:27:55;93804.59;;;16.04;98.44
43450;BME280;29041;42.266;23.110;2022-12-11T05:30:43;93809.72;;;15.95;98.76
43450;BME280;29041;42.266;23.110;2022-12-11T05:33:30;93803.00;;;15.68;100.00
43450;BME280;29041;42.266;23.110;2022-12-11T05:36:23;93797.84;;;15.81;98.57
43450;BME280;29041;42.266;23.110;2022-12-11T05:39:13;93811.41;;;16.12;95.92
43450;BME280;29041;42.266;23.110;2022-12-11T05:42:00;93802.53;;;16.12;95.33
43450;BME280;29041;42.266;23.110;2022-12-11T05:44:48;93782.34;;;15.85;96.99
43450;BME280;29041;42.266;23.110;2022-12-11T05:47:35;93774.19;;;15.89;94.75
43450;BME280;29041;42.266;23.110;2022-12-11T05:50:22;93754.97;;;15.76;94.14
43450;BME280;29041;42.266;23.110;2022-12-11T05:53:10;93805.25;;;16.12;93.39
43450;BME280;29041;42.266;23.110;2022-12-11T05:56:02;93792.38;;;16.20;93.53
43450;BME280;29041;42.266;23.110;2022-12-11T05:58:49;93785.19;;;16.09;94.05
43450;BME280;29041;42.266;23.110;2022-12-11T06:01:56;93781.34;;;16.38;94.67
43450;BME280;29041;42.266;23.110;2022-12-11T06:04:43;93771.41;;;15.96;91.56
43450;BME280;29041;42.266;23.110;2022-12-11T06:07:31;93777.63;;;16.24;90.37
43450;BME280;29041;42.266;23.110;2022-12-11T06:10:18;93791.44;;;16.02;86.62
43450;BME280;29041;42.266;23.110;2022-12-11T06:13:07;93764.47;;;16.54;83.68
43450;BME280;29041;42.266;23.110;2022-12-11T06:15:58;93748.81;;;16.41;85.42
43450;BME280;29041;42.266;23.110;2022-12-11T06:18:45;93782.34;;;16.20;86.90
43450;BME280;29041;42.266;23.110;2022-12-11T06:21:33;93804.03;;;16.16;85.97
43450;BME280;29041;42.266;23.110;2022-12-11T06:24:22;93809.34;;;17.09;88.71
43450;BME280;29041;42.266;23.110;2022-12-11T06:27:09;93780.41;;;15.82;95.79
43450;BME280;29041;42.266;23.110;2022-12-11T06:29:59;93780.47;;;15.79;98.47
43450;BME280;29041;42.266;23.110;2022-12-11T06:32:47;93788.66;;;15.71;99.65
43450;BME280;29041;42.266;23.110;2022-12-11T06:35:34;93813.63;;;15.03;100.00
43450;BME280;29041;42.266;23.110;2022-12-11T06:38:21;93798.59;;;14.98;100.00
43450;BME280;29041;42.266;23.110;2022-12-11T06:41:11;93798.63;;;14.95;100.00
43450;BME280;29041;42.266;23.110;2022-12-11T06:43:59;93762.22;;;15.10;100.00
43450;BME280;29041;42.266;23.110;2022-12-11T06:46:48;93787.22;;;15.63;100.00
43450;BME280;29041;42.266;23.110;2022-12-11T06:49:36;93763.31;;;15.58;100.00
43450;BME280;29041;42.266;23.110;2022-12-11T06:52:24;93784.78;;;16.11;100.00
43450;BME280;29041;42.266;23.110;2022-12-11T06:55:13;93759.84;;;15.16;100.00
43450;BME280;29041;42.266;23.110;2022-12-11T06:58:01;93784.91;;;15.20;100.00
43450;BME280;29041;42.266;23.110;2022-12-11T07:00:49;93793.31;;;15.71;100.00
43450;BME280;29041;42.266;23.110;2022-12-11T07:03:39;93800.66;;;15.32;100.00
43450;BME280;29041;42.266;23.110;2022-12-11T07:06:27;93812.63;;;15.31;100.00
43450;BME280;29041;42.266;23.110;2022-12-11T07:09:15;93817.91;;;15.46;100.00
43450;BME280;29041;42.266;23.110;2022-12-11T07:12:02;93816.22;;;15.17;100.00
43450;BME280;29041;42.266;23.110;2022-12-11T07:14:49;93813.59;;;15.52;100.00
43450;BME280;29041;42.266;23.110;2022-12-11T07:17:37;93798.97;;;15.46;100.00
43450;BME280;29041;42.266;23.110;2022-12-11T07:24:08;93810.72;;;15.28;100.00
43450;BME280;29041;42.266;23.110;2022-12-11T07:26:55;93833.59;;;15.62;100.00
43450;BME280;29041;42.266;23.110;2022-12-11T07:29:44;93820.41;;;15.22;100.00
43450;BME280;29041;42.266;23.110;2022-12-11T07:33:07;93841.97;;;15.75;100.00
43450;BME280;29041;42.266;23.110;2022-12-11T07:35:54;93829.47;;;15.46;100.00
43450;BME280;29041;42.266;23.110;2022-12-11T07:38:41;93850.41;;;15.38;100.00
43450;BME280;29041;42.266;23.110;2022-12-11T07:41:30;93846.63;;;15.74;100.00
43450;BME280;29041;42.266;23.110;2022-12-11T07:44:18;93848.34;;;15.53;100.00
43450;BME280;29041;42.266;23.110;2022-12-11T07:47:05;93844.09;;;15.56;100.00
43450;BME280;29041;42.266;23.110;2022-12-11T07:49:52;93849.06;;;15.61;100.00
43450;BME280;29041;42.266;23.110;2022-12-11T07:52:39;93837.66;;;15.81;100.00
43450;BME280;29041;42.266;23.110;2022-12-11T07:55:26;93849.53;;;16.29;100.00
43450;BME280;29041;42.266;23.110;2022-12-11T07:58:15;93838.97;;;16.04;100.00
43450;BME280;29041;42.266;23.110;2022-12-11T08:01:02;93855.81;;;16.22;100.00
43450;BME280;29041;42.266;23.110;2022-12-11T08:03:49;93850.78;;;16.21;100.00
43450;BME280;29041;42.266;23.110;2022-12-11T08:06:38;93841.72;;;17.68;94.08
43450;BME280;29041;42.266;23.110;2022-12-11T08:09:29;93825.28;;;16.49;97.93
43450;BME280;29041;42.266;23.110;2022-12-11T08:12:16;93839.38;;;17.70;94.32
43450;BME280;29041;42.266;23.110;2022-12-11T08:15:07;93844.66;;;20.82;81.56
43450;BME280;29041;42.266;23.110;2022-12-11T08:17:54;93807.28;;;20.53;80.85
43450;BME280;29041;42.266;23.110;2022-12-11T08:20:41;93812.59;;;17.92;89.59
43450;BME280;29041;42.266;23.110;2022-12-11T08:23:28;93849.94;;;18.28;89.75
43450;BME280;29041;42.266;23.110;2022-12-11T08:26:16;93848.47;;;19.00;86.43
43450;BME280;29041;42.266;23.110;2022-12-11T08:29:04;93843.31;;;17.18;93.28
43450;BME280;29041;42.266;23.110;2022-12-11T08:31:55;93825.47;;;16.65;95.88
43450;BME280;29041;42.266;23.110;2022-12-11T08:34:44;93834.47;;;16.86;96.81
43450;BME280;29041;42.266;23.110;2022-12-11T08:37:32;93837.88;;;16.63;96.77
43450;BME280;29041;42.266;23.110;2022-12-11T08:40:20;93804.00;;;16.78;95.97
43450;BME280;29041;42.266;23.110;2022-12-11T08:43:07;93839.19;;;16.51;97.93
43450;BME280;29041;42.266;23.110;2022-12-11T08:45:54;93838.31;;;16.58;96.99
43450;BME280;29041;42.266;23.110;2022-12-11T08:48:43;93817.50;;;16.82;96.83
43450;BME280;29041;42.266;23.110;2022-12-11T08:51:30;93823.94;;;16.92;95.91
43450;BME280;29041;42.266;23.110;2022-12-11T08:54:18;93838.13;;;17.74;92.21
43450;BME280;29041;42.266;23.110;2022-12-11T08:57:05;93844.84;;;17.90;87.56
43450;BME280;29041;42.266;23.110;2022-12-11T08:59:52;93841.41;;;18.66;86.72
43450;BME280;29041;42.266;23.110;2022-12-11T09:02:39;93836.91;;;18.96;84.53
43450;BME280;29041;42.266;23.110;2022-12-11T09:05:29;93832.34;;;19.59;80.23
43450;BME280;29041;42.266;23.110;2022-12-11T09:08:16;93830.25;;;19.80;78.28
43450;BME280;29041;42.266;23.110;2022-12-11T09:11:07;93848.75;;;19.56;76.31
43450;BME280;29041;42.266;23.110;2022-12-11T09:14:01;93841.59;;;19.62;73.42
43450;BME280;29041;42.266;23.110;2022-12-11T09:16:48;93842.66;;;20.69;69.84
43450;BME280;29041;42.266;23.110;2022-12-11T09:19:35;93839.03;;;19.88;70.28
43450;BME280;29041;42.266;23.110;2022-12-11T09:22:26;93832.28;;;19.13;70.85
43450;BME280;29041;42.266;23.110;2022-12-11T09:25:20;93834.31;;;19.42;70.91
43450;BME280;29041;42.266;23.110;2022-12-11T09:28:09;93826.72;;;19.33;71.70
43450;BME280;29041;42.266;23.110;2022-12-11T09:30:56;93825.59;;;19.80;72.21
43450;BME280;29041;42.266;23.110;2022-12-11T09:33:44;93794.44;;;20.11;68.95
43450;BME280;29041;42.266;23.110;2022-12-11T09:36:34;93813.28;;;19.59;72.05
43450;BME280;29041;42.266;23.110;2022-12-11T09:39:23;93812.66;;;18.85;73.64
43450;BME280;29041;42.266;23.110;2022-12-11T09:42:14;93810.09;;;18.78;72.34
43450;BME280;29041;42.266;23.110;2022-12-11T09:45:09;93813.34;;;18.90;72.64
43450;BME280;29041;42.266;23.110;2022-12-11T09:47:59;93800.13;;;19.08;73.74
43450;BME280;29041;42.266;23.110;2022-12-11T09:50:49;93813.00;;;18.51;75.88
43450;BME280;29041;42.266;23.110;2022-12-11T09:53:38;93811.84;;;18.32;75.14
43450;BME280;29041;42.266;23.110;2022-12-11T09:56:32;93807.28;;;18.08;75.04
43450;BME280;29041;42.266;23.110;2022-12-11T09:59:23;93830.44;;;18.53;76.92
43450;BME280;29041;42.266;23.110;2022-12-11T10:02:22;93826.41;;;18.78;76.39
43450;BME280;29041;42.266;23.110;2022-12-11T10:05:18;93815.47;;;18.45;78.63
43450;BME280;29041;42.266;23.110;2022-12-11T10:08:14;93827.84;;;18.83;78.42
43450;BME280;29041;42.266;23.110;2022-12-11T10:14:19;93817.25;;;18.15;79.47
43450;BME280;29041;42.266;23.110;2022-12-11T10:17:14;93828.44;;;18.74;79.37
43450;BME280;29041;42.266;23.110;2022-12-11T10:20:22;93831.28;;;18.87;78.28
43450;BME280;29041;42.266;23.110;2022-12-11T10:23:15;93815.25;;;17.75;79.51
43450;BME280;29041;42.266;23.110;2022-12-11T10:26:06;93826.78;;;18.23;79.42
43450;BME280;29041;42.266;23.110;2022-12-11T10:28:57;93793.94;;;17.74;81.32
43450;BME280;29041;42.266;23.110;2022-12-11T10:31:49;93798.78;;;17.63;81.12
43450;BME280;29041;42.266;23.110;2022-12-11T10:34:40;93803.22;;;18.37;80.09
43450;BME280;29041;42.266;23.110;2022-12-11T10:37:28;93793.63;;;18.12;81.06
43450;BME280;29041;42.266;23.110;2022-12-11T10:40:15;93775.78;;;17.91;80.15
43450;BME280;29041;42.266;23.110;2022-12-11T10:43:04;93784.88;;;18.04;79.34
43450;BME280;29041;42.266;23.110;2022-12-11T10:45:52;93773.66;;;18.02;80.10
43450;BME280;29041;42.266;23.110;2022-12-11T10:48:46;93766.25;;;18.03;81.57
43450;BME280;29041;42.266;23.110;2022-12-11T10:51:35;93768.22;;;18.22;80.46
43450;BME280;29041;42.266;23.110;2022-12-11T10:54:30;93760.34;;;19.14;78.05
43450;BME280;29041;42.266;23.110;2022-12-11T10:57:26;93744.88;;;18.25;80.10
43450;BME280;29041;42.266;23.110;2022-12-11T11:00:32;93714.19;;;18.61;77.91
43450;BME280;29041;42.266;23.110;2022-12-11T11:03:21;93746.50;;;18.22;77.95
43450;BME280;29041;42.266;23.110;2022-12-11T11:06:16;93751.31;;;18.68;78.45
43450;BME280;29041;42.266;23.110;2022-12-11T11:09:21;93744.53;;;18.23;76.82
43450;BME280;29041;42.266;23.110;2022-12-11T11:12:20;93753.00;;;18.45;75.34
43450;BME280;29041;42.266;23.110;2022-12-11T11:15:12;93761.03;;;18.12;75.55
43450;BME280;29041;42.266;23.110;2022-12-11T11:18:09;93753.97;;;17.95;76.09
43450;BME280;29041;42.266;23.110;2022-12-11T11:20:58;93762.28;;;18.28;76.12
43450;BME280;29041;42.266;23.110;2022-12-11T11:23:48;93754.78;;;18.15;75.50
43450;BME280;29041;42.266;23.110;2022-12-11T11:26:36;93742.63;;;18.03;79.79
43450;BME280;29041;42.266;23.110;2022-12-11T11:29:27;93749.06;;;17.89;79.09
43450;BME280;29041;42.266;23.110;2022-12-11T11:32:19;93736.44;;;18.19;79.23
43450;BME280;29041;42.266;23.110;2022-12-11T11:35:21;93751.56;;;18.20;80.29
43450;BME280;29041;42.266;23.110;2022-12-11T11:38:16;93747.25;;;17.19;81.56
43450;BME280;29041;42.266;23.110;2022-12-11T11:41:12;93721.25;;;17.21;82.66
43450;BME280;29041;42.266;23.110;2022-12-11T11:44:05;93708.69;;;17.51;82.94
43450;BME280;29041;42.266;23.110;2022-12-11T11:46:57;93736.09;;;18.17;81.93
43450;BME280;29041;42.266;23.110;2022-12-11T11:49:51;93742.91;;;18.26;81.76
43450;BME280;29041;42.266;23.110;2022-12-11T11:52:43;93739.88;;;18.40;82.42
43450;BME280;29041;42.266;23.110;2022-12-11T11:55:39;93742.44;;;17.90;84.53
43450;BME280;29041;42.266;23.110;2022-12-11T11:58:52;93740.81;;;18.33;83.75
43450;BME280;29041;42.266;23.110;2022-12-11T12:01:42;93741.00;;;18.06;83.07
43450;BME280;29041;42.266;23.110;2022-12-11T12:04:32;93752.97;;;17.24;85.27
43450;BME280;29041;42.266;23.110;2022-12-11T12:07:30;93710.56;;;17.34;85.93
43450;BME280;29041;42.266;23.110;2022-12-11T12:10:24;93737.09;;;17.67;85.78
43450;BME280;29041;42.266;23.110;2022-12-11T12:13:16;93730.34;;;17.11;87.77
43450;BME280;29041;42.266;23.110;2022-12-11T12:16:19;93721.19;;;17.25;86.76
43450;BME280;29041;42.266;23.110;2022-12-11T12:19:14;93736.66;;;17.88;85.95
43450;BME280;29041;42.266;23.110;2022-12-11T12:22:15;93732.25;;;17.34;89.56
43450;BME280;29041;42.266;23.110;2022-12-11T12:25:15;93736.00;;;18.04;87.52
43450;BME280;29041;42.266;23.110;2022-12-11T12:28:14;93725.88;;;17.44;90.32
43450;BME280;29041;42.266;23.110;2022-12-11T12:31:19;93741.31;;;16.76;94.42
43450;BME280;29041;42.266;23.110;2022-12-11T12:34:14;93758.38;;;16.46;97.46
43450;BME280;29041;42.266;23.110;2022-12-11T12:37:14;93755.13;;;16.58;99.03
43450;BME280;29041;42.266;23.110;2022-12-11T12:40:13;93762.94;;;16.53;100.00
43450;BME280;29041;42.266;23.110;2022-12-11T12:43:27;93772.50;;;16.61;100.00
43450;BME280;29041;42.266;23.110;2022-12-11T12:46:29;93758.34;;;16.22;100.00
43450;BME280;29041;42.266;23.110;2022-12-11T12:49:31;93787.81;;;16.16;100.00
43450;BME280;29041;42.266;23.110;2022-12-11T12:52:24;93782.69;;;15.91;100.00
43450;BME280;29041;42.266;23.110;2022-12-11T12:55:18;93788.47;;;15.93;100.00
43450;BME280;29041;42.266;23.110;2022-12-11T12:58:24;93794.03;;;15.37;100.00
43450;BME280;29041;42.266;23.110;2022-12-11T13:01:16;93779.19;;;15.14;100.00
43450;BME280;29041;42.266;23.110;2022-12-11T13:04:26;93792.22;;;15.23;100.00
43450;BME280;29041;42.266;23.110;2022-12-11T13:07:17;93779.91;;;15.18;100.00
43450;BME280;29041;42.266;23.110;2022-12-11T13:10:24;93791.34;;;15.37;100.00
43450;BME280;29041;42.266;23.110;2022-12-11T13:13:31;93789.75;;;14.94;100.00
43450;BME280;29041;42.266;23.110;2022-12-11T13:16:26;93765.81;;;14.36;100.00
43450;BME280;29041;42.266;23.110;2022-12-11T13:19:29;93794.88;;;14.81;100.00
43450;BME280;29041;42.266;23.110;2022-12-11T13:22:22;93794.13;;;14.81;100.00
43450;BME280;29041;42.266;23.110;2022-12-11T13:25:19;93812.59;;;14.86;100.00
43450;BME280;29041;42.266;23.110;2022-12-11T13:28:20;93812.22;;;14.80;100.00
43450;BME280;29041;42.266;23.110;2022-12-11T13:31:27;93792.72;;;14.54;100.00
43450;BME280;29041;42.266;23.110;2022-12-11T13:34:20;93812.69;;;14.64;100.00
43450;BME280;29041;42.266;23.110;2022-12-11T13:37:22;93814.56;;;14.78;100.00
43450;BME280;29041;42.266;23.110;2022-12-11T13:40:16;93836.59;;;15.71;100.00
43450;BME280;29041;42.266;23.110;2022-12-11T13:43:10;93837.28;;;15.41;100.00
43450;BME280;29041;42.266;23.110;2022-12-11T13:46:04;93826.03;;;14.93;100.00
43450;BME280;29041;42.266;23.110;2022-12-11T13:48:54;93838.72;;;15.49;100.00
43450;BME280;29041;42.266;23.110;2022-12-11T13:51:52;93830.50;;;15.18;100.00
43450;BME280;29041;42.266;23.110;2022-12-11T13:54:46;93853.41;;;15.02;100.00
43450;BME280;29041;42.266;23.110;2022-12-11T13:57:43;93864.50;;;15.12;100.00
43450;BME280;29041;42.266;23.110;2022-12-11T14:00:31;93868.78;;;15.05;99.74
43450;BME280;29041;42.266;23.110;2022-12-11T14:03:18;93880.31;;;15.17;98.07
43450;BME280;29041;42.266;23.110;2022-12-11T14:06:08;93860.41;;;14.93;100.00
43450;BME280;29041;42.266;23.110;2022-12-11T14:08:59;93861.47;;;15.06;100.00
43450;BME280;29041;42.266;23.110;2022-12-11T14:11:49;93874.91;;;15.17;99.66
43450;BME280;29041;42.266;23.110;2022-12-11T14:14:44;93876.38;;;15.29;100.00
43450;BME280;29041;42.266;23.110;2022-12-11T14:17:33;93867.09;;;15.30;100.00
43450;BME280;29041;42.266;23.110;2022-12-11T14:20:23;93874.03;;;15.27;100.00
43450;BME280;29041;42.266;23.110;2022-12-11T14:23:17;93883.63;;;15.81;99.07
43450;BME280;29041;42.266;23.110;2022-12-11T14:26:16;93876.88;;;15.58;100.00
43450;BME280;29041;42.266;23.110;2022-12-11T14:29:28;93868.75;;;16.04;99.53
43450;BME280;29041;42.266;23.110;2022-12-11T14:32:18;93847.03;;;16.11;98.89
43450;BME280;29041;42.266;23.110;2022-12-11T14:35:22;93857.09;;;15.23;100.00
43450;BME280;29041;42.266;23.110;2022-12-11T14:38:17;93870.19;;;15.28;100.00
43450;BME280;29041;42.266;23.110;2022-12-11T14:41:12;93874.78;;;14.75;100.00
43450;BME280;29041;42.266;23.110;2022-12-11T14:44:06;93877.78;;;14.91;100.00
43450;BME280;29041;42.266;23.110;2022-12-11T14:46:56;93860.00;;;14.94;100.00
43450;BME280;29041;42.266;23.110;2022-12-11T14:49:48;93860.59;;;14.53;100.00
43450;BME280;29041;42.266;23.110;2022-12-11T14:52:41;93874.94;;;15.13;100.00
43450;BME280;29041;42.266;23.110;2022-12-11T14:55:31;93874.69;;;15.46;100.00
43450;BME280;29041;42.266;23.110;2022-12-11T14:58:22;93888.66;;;14.81;100.00
43450;BME280;29041;42.266;23.110;2022-12-11T15:01:23;93877.38;;;14.93;100.00
43450;BME280;29041;42.266;23.110;2022-12-11T15:04:22;93881.97;;;15.03;100.00
43450;BME280;29041;42.266;23.110;2022-12-11T15:07:18;93879.56;;;15.13;100.00
43450;BME280;29041;42.266;23.110;2022-12-11T15:10:32;93888.28;;;15.35;100.00
43450;BME280;29041;42.266;23.110;2022-12-11T15:13:22;93888.19;;;15.49;100.00
43450;BME280;29041;42.266;23.110;2022-12-11T15:16:13;93880.69;;;14.48;100.00
43450;BME280;29041;42.266;23.110;2022-12-11T15:19:02;93873.75;;;14.47;100.00